Time;durP1;ratioP1;P1;durP2;ratioP2;P2;SDS_P1;SDS_P2;PMS_P1;PMS_P2;Temp;Humidity;BMP_temperature;BMP_pressure;BME280_temperature;BME280_humidity;BME280_pressure;Samples;Min_cycle;Max_cycle;Signal;HPM_P1;HPM_P2
2022/04/18 00:00:58;;;;;;;5.25;3.88;;;;;;;9.50;45.60;101922.13;5053779;28;20498;-84
2022/04/18 00:03:23;;;;;;;5.20;3.80;;;;;;;9.49;46.09;101923.91;5054644;28;20457;-84
2022/04/18 00:05:49;;;;;;;8.27;3.85;;;;;;;9.42;46.67;101917.22;5054849;28;20507;-83
2022/04/18 00:08:14;;;;;;;4.65;3.90;;;;;;;9.35;47.05;101911.41;5053967;28;20040;-84
2022/04/18 00:10:39;;;;;;;5.53;3.70;;;;;;;9.32;47.48;101910.72;5055156;28;20072;-84
2022/04/18 00:13:05;;;;;;;6.10;3.88;;;;;;;9.27;47.20;101913.59;5036237;28;20055;-84
2022/04/18 00:15:30;;;;;;;6.22;4.32;;;;;;;9.22;46.94;101913.00;5054931;28;20196;-84
2022/04/18 00:17:55;;;;;;;6.87;3.80;;;;;;;9.15;47.29;101906.31;5037517;28;20473;-84
2022/04/18 00:20:20;;;;;;;4.53;3.75;;;;;;;9.15;47.54;101908.97;5035640;28;20390;-84
2022/04/18 00:22:46;;;;;;;4.13;3.50;;;;;;;9.10;47.65;101918.97;5037503;28;20076;-84
2022/04/18 00:25:11;;;;;;;5.10;3.50;;;;;;;9.06;47.92;101905.88;5061972;28;20073;-84
2022/04/18 00:27:36;;;;;;;4.43;3.67;;;;;;;9.00;48.41;101911.50;5078768;28;20051;-83
2022/04/18 00:30:03;;;;;;;4.32;3.53;;;;;;;8.96;48.90;101914.38;5060719;28;20048;-83
2022/04/18 00:32:28;;;;;;;5.93;4.03;;;;;;;8.94;48.70;101910.97;5045156;28;20052;-84
2022/04/18 00:34:53;;;;;;;4.47;3.90;;;;;;;8.85;49.02;101912.31;5041727;28;20029;-84
2022/04/18 00:37:18;;;;;;;8.90;3.60;;;;;;;8.83;48.89;101915.03;5042306;28;20290;-84
2022/04/18 00:39:44;;;;;;;5.30;3.38;;;;;;;8.81;49.00;101924.00;5060352;28;20037;-84
2022/04/18 00:42:09;;;;;;;7.18;3.88;;;;;;;8.69;49.25;101917.53;5029028;28;20096;-84
2022/04/18 00:44:34;;;;;;;5.70;3.70;;;;;;;8.66;48.86;101922.97;5020953;28;20507;-84
2022/04/18 00:47:00;;;;;;;8.48;4.40;;;;;;;8.60;49.36;101912.72;5038975;28;20048;-83
2022/04/18 00:49:25;;;;;;;5.70;3.90;;;;;;;8.57;49.48;101912.88;5019774;28;20484;-83
2022/04/18 00:51:50;;;;;;;6.88;4.20;;;;;;;8.54;49.52;101918.31;5056345;28;20044;-83
2022/04/18 00:54:16;;;;;;;4.75;3.60;;;;;;;8.44;50.18;101905.56;5040085;28;20052;-84
2022/04/18 00:56:42;;;;;;;6.85;4.68;;;;;;;8.45;49.64;101911.72;5041074;28;20048;-84
2022/04/18 00:59:07;;;;;;;5.60;4.10;;;;;;;8.40;49.83;101919.84;5058061;28;20051;-83
2022/04/18 01:01:33;;;;;;;6.47;3.90;;;;;;;8.36;49.41;101914.78;5056586;28;20021;-83
2022/04/18 01:03:58;;;;;;;6.57;4.18;;;;;;;8.30;50.59;101908.00;5039493;28;20036;-83
2022/04/18 01:06:23;;;;;;;5.38;3.65;;;;;;;8.27;50.36;101910.81;5057165;28;20113;-84
2022/04/18 01:08:49;;;;;;;7.22;4.03;;;;;;;8.22;50.36;101907.53;5039258;28;20044;-84
2022/04/18 01:11:15;;;;;;;7.85;4.20;;;;;;;8.21;50.32;101906.69;5020075;28;20396;-83
2022/04/18 01:13:45;;;;;;;5.03;3.67;;;;;;;8.15;50.16;101904.34;5037077;28;20123;-84
2022/04/18 01:16:14;;;;;;;6.13;3.90;;;;;;;8.10;50.50;101903.72;5052878;28;20472;-84
2022/04/18 01:18:40;;;;;;;7.03;4.00;;;;;;;8.07;50.79;101901.22;5057718;28;20044;-84
2022/04/18 01:21:09;;;;;;;5.10;3.85;;;;;;;7.98;51.29;101902.53;5057974;28;20111;-83
2022/04/18 01:23:35;;;;;;;6.32;3.65;;;;;;;7.98;51.57;101897.22;5057105;28;20040;-84
2022/04/18 01:29:03;;;;;;;4.32;3.88;;;;;;;7.88;51.61;101902.09;5057348;28;20040;-84
2022/04/18 01:31:31;;;;;;;4.55;4.13;;;;;;;7.83;51.92;101906.75;5038582;28;20048;-84
2022/04/18 01:33:57;;;;;;;6.93;4.22;;;;;;;7.74;52.25;101908.06;5057157;28;20033;-84
2022/04/18 01:36:23;;;;;;;7.78;4.55;;;;;;;7.69;51.98;101906.56;5055047;28;20116;-83
2022/04/18 01:38:49;;;;;;;6.15;3.78;;;;;;;7.66;52.53;101904.06;5056512;28;20040;-83
2022/04/18 01:41:14;;;;;;;5.15;4.00;;;;;;;7.59;53.16;101906.13;5038488;28;20037;-83
2022/04/18 01:43:40;;;;;;;6.88;4.15;;;;;;;7.49;53.66;101892.47;5057502;28;20036;-83
2022/04/18 01:46:05;;;;;;;4.75;4.30;;;;;;;7.48;53.91;101911.09;5056244;28;20086;-83
2022/04/18 01:48:30;;;;;;;5.55;3.75;;;;;;;7.41;53.74;101902.53;5056847;28;20029;-83
2022/04/18 01:50:56;;;;;;;5.18;4.35;;;;;;;7.40;53.51;101908.78;5056262;28;20124;-83
2022/04/18 01:53:21;;;;;;;5.25;3.80;;;;;;;7.37;54.38;101901.00;5055808;28;20452;-83
2022/04/18 01:55:46;;;;;;;5.32;4.10;;;;;;;7.32;54.56;101892.41;5056638;28;20037;-83
2022/04/18 01:58:12;;;;;;;6.28;4.15;;;;;;;7.29;54.68;101900.47;5057369;28;20060;-83
2022/04/18 02:00:37;;;;;;;6.53;4.05;;;;;;;7.31;54.97;101899.50;5056304;28;20092;-83
2022/04/18 02:03:03;;;;;;;5.65;3.97;;;;;;;7.26;54.66;101890.94;5057195;28;20072;-83
2022/04/18 02:05:28;;;;;;;6.18;3.83;;;;;;;7.22;54.64;101891.97;5055408;28;20043;-83
2022/04/18 02:07:54;;;;;;;5.28;4.10;;;;;;;7.16;54.94;101886.97;5055363;28;20444;-83
2022/04/18 02:10:19;;;;;;;5.45;3.80;;;;;;;7.12;54.46;101882.75;5038692;28;20095;-84
2022/04/18 02:12:45;;;;;;;5.80;3.95;;;;;;;7.09;54.26;101882.91;5056423;28;20037;-84
2022/04/18 02:15:10;;;;;;;6.78;3.88;;;;;;;7.04;54.60;101886.63;5037366;28;20080;-84
2022/04/18 02:17:36;;;;;;;6.05;3.95;;;;;;;6.99;54.80;101890.38;5054811;28;20120;-84
2022/04/18 02:20:01;;;;;;;5.10;3.67;;;;;;;7.01;54.93;101888.50;5057279;28;20033;-84
2022/04/18 02:22:27;;;;;;;6.63;4.00;;;;;;;6.98;55.03;101878.97;5038913;28;20395;-84
2022/04/18 02:27:28;;;;;;;6.13;3.50;;;;;;;6.91;55.61;101885.44;5108243;22;20110;-77
2022/04/18 02:29:53;;;;;;;4.40;3.60;;;;;;;6.88;55.77;101875.03;5077194;28;20052;-77
2022/04/18 02:35:02;;;;;;;6.65;4.30;;;;;;;6.82;55.94;101870.00;5085190;28;20568;-78
2022/04/18 02:37:28;;;;;;;4.70;4.00;;;;;;;6.79;56.33;101872.78;5075142;28;20111;-77
2022/04/18 02:39:54;;;;;;;5.05;3.75;;;;;;;6.69;56.22;101851.19;5074249;28;20043;-77
2022/04/18 02:42:20;;;;;;;5.72;4.00;;;;;;;6.75;56.52;101866.78;5074326;28;20078;-77
2022/04/18 02:44:48;;;;;;;5.20;3.78;;;;;;;6.71;56.22;101867.84;5085131;28;20119;-77
2022/04/18 02:47:14;;;;;;;6.33;4.30;;;;;;;6.66;56.46;101865.41;5073728;28;20041;-77
2022/04/18 02:49:39;;;;;;;5.60;3.90;;;;;;;6.68;56.08;101865.34;5073775;28;20033;-77
2022/04/18 02:52:04;;;;;;;5.90;3.63;;;;;;;6.68;56.29;101862.69;5074257;28;20044;-77
2022/04/18 02:54:30;;;;;;;4.57;3.65;;;;;;;6.64;55.91;101867.25;5090274;28;20111;-76
2022/04/18 02:56:55;;;;;;;8.15;3.85;;;;;;;6.61;55.81;101859.47;5094076;28;20568;-77
2022/04/18 02:59:21;;;;;;;4.05;3.63;;;;;;;6.57;55.72;101852.59;5094146;28;20028;-77
2022/04/18 03:01:46;;;;;;;3.67;3.38;;;;;;;6.56;55.57;101856.19;5080420;28;20036;-77
2022/04/18 03:04:11;;;;;;;4.32;3.28;;;;;;;6.53;55.75;101843.09;5073958;28;20094;-77
2022/04/18 03:06:36;;;;;;;6.13;3.85;;;;;;;6.53;56.14;101843.09;5073722;28;20590;-77
2022/04/18 03:09:02;;;;;;;5.63;3.63;;;;;;;6.48;55.90;101845.94;5073535;28;20036;-77
2022/04/18 03:11:27;;;;;;;7.63;3.90;;;;;;;6.47;56.08;101841.56;5075399;28;20032;-77
2022/04/18 03:13:53;;;;;;;4.78;3.72;;;;;;;6.42;55.96;101840.91;5093867;28;20040;-77
2022/04/18 03:16:18;;;;;;;7.55;3.80;;;;;;;6.37;55.47;101836.78;5075711;28;20051;-77
2022/04/18 03:18:44;;;;;;;4.53;3.70;;;;;;;6.39;55.42;101843.69;5090509;28;20693;-77
2022/04/18 03:21:10;;;;;;;7.60;4.20;;;;;;;6.34;55.87;101832.47;5092299;28;20043;-77
2022/04/18 03:23:35;;;;;;;6.75;4.38;;;;;;;6.34;55.86;101840.38;5092346;28;20510;-77
2022/04/18 03:26:00;;;;;;;7.05;4.82;;;;;;;6.33;55.47;101838.69;5093290;28;20131;-77
2022/04/18 03:28:26;;;;;;;6.22;4.57;;;;;;;6.33;56.20;101846.59;5075393;28;20426;-77
2022/04/18 03:30:55;;;;;;;8.88;5.18;;;;;;;6.25;56.17;101836.38;5093932;28;20058;-77
2022/04/18 03:33:20;;;;;;;6.93;4.75;;;;;;;6.25;55.93;101843.44;5092973;28;20424;-78
2022/04/18 03:41:14;;;;;;;9.02;5.25;;;;;;;6.11;56.74;101841.34;5073700;28;20048;-77
2022/04/18 03:43:39;;;;;;;10.43;5.70;;;;;;;6.09;56.60;101840.56;5091471;28;20036;-78
2022/04/18 03:46:05;;;;;;;7.90;5.03;;;;;;;6.05;56.32;101847.75;5093580;28;20032;-77
2022/04/18 03:48:30;;;;;;;10.20;5.90;;;;;;;6.02;56.26;101847.03;5070975;28;20074;-77
2022/04/18 03:50:55;;;;;;;11.73;5.85;;;;;;;5.95;57.03;101833.22;5073286;28;20388;-77
2022/04/18 03:53:20;;;;;;;11.38;7.53;;;;;;;5.95;57.43;101848.19;5073363;28;20036;-77
2022/04/18 03:55:46;;;;;;;12.98;8.05;;;;;;;5.90;57.26;101835.19;5073604;28;20040;-78
2022/04/18 03:58:11;;;;;;;15.35;9.23;;;;;;;5.86;57.16;101839.72;5073099;28;20533;-77
2022/04/18 04:00:36;;;;;;;15.43;10.23;;;;;;;5.88;57.11;101842.31;5075857;28;20391;-77
2022/04/18 04:03:01;;;;;;;17.35;10.18;;;;;;;5.82;56.70;101846.03;5077449;28;20094;-77
2022/04/18 04:05:27;;;;;;;15.70;10.15;;;;;;;5.83;57.07;101838.97;5078183;28;20025;-77
2022/04/18 04:07:52;;;;;;;16.02;10.52;;;;;;;5.80;57.33;101842.59;5078208;28;20498;-77
2022/04/18 04:10:17;;;;;;;19.52;12.93;;;;;;;5.78;56.96;101838.31;5059400;28;20111;-77
2022/04/18 04:12:42;;;;;;;18.42;12.40;;;;;;;5.71;56.85;101833.28;5076989;28;20036;-77
2022/04/18 04:15:09;;;;;;;22.58;12.93;;;;;;;5.74;57.36;101840.22;5076875;28;20036;-77
2022/04/18 04:17:34;;;;;;;22.42;13.57;;;;;;;5.71;57.52;101828.03;5076943;28;20116;-77
2022/04/18 04:20:00;;;;;;;22.73;15.05;;;;;;;5.69;57.13;101834.25;5076760;28;20060;-77
2022/04/18 04:22:25;;;;;;;23.48;14.38;;;;;;;5.67;57.14;101834.31;5076873;28;20037;-77
2022/04/18 04:24:50;;;;;;;21.52;13.38;;;;;;;5.66;57.83;101832.63;5076650;28;20494;-77
2022/04/18 04:27:15;;;;;;;22.55;14.05;;;;;;;5.62;57.85;101833.66;5077018;28;20048;-77
2022/04/18 04:29:41;;;;;;;21.10;13.40;;;;;;;5.60;57.47;101835.50;5076212;28;20048;-77
2022/04/18 04:32:06;;;;;;;20.95;14.18;;;;;;;5.57;57.59;101833.84;5076189;28;20045;-77
2022/04/18 04:34:32;;;;;;;23.42;13.98;;;;;;;5.55;58.31;101837.47;5087049;28;20036;-77
2022/04/18 04:36:57;;;;;;;20.70;15.05;;;;;;;5.54;58.47;101838.38;5097258;28;20056;-76
2022/04/18 04:39:22;;;;;;;25.75;14.50;;;;;;;5.46;58.66;101827.28;5097164;28;20051;-77
2022/04/18 04:41:47;;;;;;;22.33;14.45;;;;;;;5.45;57.67;101836.13;5097155;28;20370;-77
2022/04/18 04:44:13;;;;;;;24.30;15.75;;;;;;;5.44;57.83;101837.88;5084520;28;20040;-77
2022/04/18 04:46:38;;;;;;;24.17;15.52;;;;;;;5.45;58.62;101836.13;5077129;28;20044;-77
2022/04/18 04:49:03;;;;;;;23.40;15.57;;;;;;;5.42;58.78;101838.88;5077092;28;20380;-77
2022/04/18 04:51:29;;;;;;;26.35;16.10;;;;;;;5.37;58.26;101833.75;5076602;28;20032;-76
2022/04/18 04:53:55;;;;;;;25.50;15.48;;;;;;;5.38;58.36;101840.75;5077101;28;20056;-77
2022/04/18 04:56:23;;;;;;;23.48;15.20;;;;;;;5.37;58.20;101844.31;5076780;28;20037;-76
2022/04/18 04:58:49;;;;;;;21.77;13.80;;;;;;;5.37;58.23;101839.88;5076895;28;20056;-76
2022/04/18 05:01:15;;;;;;;21.90;13.10;;;;;;;5.34;57.93;101849.69;5095529;28;20074;-77
2022/04/18 05:03:40;;;;;;;18.05;11.85;;;;;;;5.36;57.18;101843.44;5097117;28;20036;-77
2022/04/18 05:06:07;;;;;;;15.50;10.13;;;;;;;5.38;56.64;101841.63;5096575;28;20055;-77
2022/04/18 05:08:32;;;;;;;12.98;9.20;;;;;;;5.39;56.73;101842.47;5083699;28;20048;-77
2022/04/18 05:10:59;;;;;;;12.55;8.70;;;;;;;5.39;56.32;101842.47;5075994;28;20032;-78
2022/04/18 05:13:25;;;;;;;12.18;7.80;;;;;;;5.43;56.65;101845.81;5076338;28;20036;-78
2022/04/18 05:15:50;;;;;;;12.25;7.50;;;;;;;5.45;56.68;101846.66;5076591;28;20154;-79
2022/04/18 05:18:15;;;;;;;8.32;5.93;;;;;;;5.49;56.23;101835.91;5057938;28;20419;-79
2022/04/18 05:20:41;;;;;;;12.60;5.93;;;;;;;5.57;56.09;101841.75;5076387;28;20028;-79
2022/04/18 05:23:06;;;;;;;11.75;5.90;;;;;;;5.64;55.84;101847.63;5076041;28;20044;-79
2022/04/18 05:25:31;;;;;;;6.47;4.93;;;;;;;5.72;55.56;101842.06;5076164;28;20471;-78
2022/04/18 05:27:57;;;;;;;6.20;4.55;;;;;;;5.78;55.31;101846.22;5076201;28;20529;-78
2022/04/18 05:30:22;;;;;;;6.15;4.60;;;;;;;5.84;55.15;101849.44;5077275;28;20445;-78
2022/04/18 05:32:47;;;;;;;4.97;4.07;;;;;;;5.90;55.02;101845.72;5096034;28;20024;-78
2022/04/18 05:35:13;;;;;;;6.68;4.18;;;;;;;5.95;54.84;101850.81;5085549;28;20034;-79
2022/04/18 05:37:38;;;;;;;4.40;3.97;;;;;;;6.00;55.00;101855.00;5077037;28;20090;-78
2022/04/18 05:40:04;;;;;;;5.38;4.10;;;;;;;6.06;54.68;101853.88;5075800;28;20483;-76
2022/04/18 05:42:29;;;;;;;4.70;3.75;;;;;;;6.11;54.47;101860.69;5095338;28;20479;-76
2022/04/18 05:44:54;;;;;;;5.40;3.80;;;;;;;6.14;54.41;101856.22;5095544;28;20047;-78
2022/04/18 05:47:20;;;;;;;4.75;3.50;;;;;;;6.20;53.94;101856.81;5095692;28;20483;-78
2022/04/18 05:49:45;;;;;;;6.80;3.85;;;;;;;6.24;54.21;101857.53;5095860;28;20093;-78
2022/04/18 05:52:10;;;;;;;5.30;3.65;;;;;;;6.33;53.55;101857.16;5095402;28;20039;-76
2022/04/18 05:54:37;;;;;;;4.95;3.42;;;;;;;6.42;53.09;101855.91;5095506;28;20437;-76
2022/04/18 05:57:05;;;;;;;8.15;3.60;;;;;;;6.53;52.89;101858.94;5087614;28;20475;-76
2022/04/18 05:59:31;;;;;;;8.27;3.72;;;;;;;6.63;52.27;101857.63;5074428;28;20033;-76
2022/04/18 06:01:56;;;;;;;4.20;3.80;;;;;;;6.71;52.18;101854.66;5076249;28;20061;-77
2022/04/18 06:04:21;;;;;;;6.97;3.80;;;;;;;6.78;52.40;101856.09;5076991;28;20032;-77
2022/04/18 06:06:47;;;;;;;4.85;3.70;;;;;;;6.86;51.56;101853.09;5081728;28;20332;-77
2022/04/18 06:09:12;;;;;;;6.38;3.60;;;;;;;6.99;50.68;101856.03;5074353;28;20028;-77
2022/04/18 06:11:37;;;;;;;4.80;3.78;;;;;;;7.08;51.31;101862.69;5075397;28;20048;-77
2022/04/18 06:14:03;;;;;;;5.60;3.40;;;;;;;7.15;51.00;101858.84;5075313;28;20127;-76
2022/04/18 06:16:28;;;;;;;8.27;3.80;;;;;;;7.24;51.04;101861.06;5057410;28;20048;-77
2022/04/18 06:18:53;;;;;;;6.43;4.00;;;;;;;7.28;50.99;101854.72;5074900;28;20043;-77
2022/04/18 06:21:18;;;;;;;4.47;3.90;;;;;;;7.39;50.83;101857.72;5074602;28;20605;-77
2022/04/18 06:23:44;;;;;;;9.27;3.80;;;;;;;7.47;50.81;101853.84;5074543;28;20075;-77
2022/04/18 06:26:09;;;;;;;4.88;3.70;;;;;;;7.54;50.40;101856.13;5074350;28;20052;-77
2022/04/18 06:28:34;;;;;;;5.40;3.58;;;;;;;7.66;49.88;101864.38;5092847;28;20036;-77
2022/04/18 06:30:59;;;;;;;3.67;3.30;;;;;;;7.79;49.52;101852.28;5094441;28;20074;-78
2022/04/18 06:33:25;;;;;;;5.00;3.33;;;;;;;7.90;49.99;101855.25;5094729;28;20036;-76
2022/04/18 06:35:50;;;;;;;4.70;3.47;;;;;;;8.04;48.90;101851.09;5072294;28;20777;-77
2022/04/18 06:38:15;;;;;;;3.83;3.47;;;;;;;8.15;48.61;101856.69;5074320;28;20032;-77
2022/04/18 06:40:40;;;;;;;3.53;3.10;;;;;;;8.30;48.79;101855.06;5074279;28;20487;-77
2022/04/18 06:43:06;;;;;;;5.60;3.50;;;;;;;8.37;48.69;101853.81;5074307;28;20064;-77
2022/04/18 06:45:31;;;;;;;4.20;3.30;;;;;;;8.50;48.04;101856.72;5074164;28;20033;-77
2022/04/18 06:47:57;;;;;;;4.28;3.30;;;;;;;8.64;48.11;101856.00;5074186;28;20130;-77
2022/04/18 06:50:22;;;;;;;4.78;2.97;;;;;;;8.75;47.78;101855.47;5074015;28;20032;-77
2022/04/18 06:52:49;;;;;;;4.75;3.38;;;;;;;8.90;47.22;101854.63;5056494;28;20068;-78
2022/04/18 06:55:16;;;;;;;4.68;2.80;;;;;;;9.10;46.91;101858.03;5080085;28;20040;-79
2022/04/18 06:57:41;;;;;;;3.17;2.88;;;;;;;9.26;45.35;101848.28;5094734;28;20036;-78
2022/04/18 07:00:07;;;;;;;4.60;2.67;;;;;;;9.57;46.14;101849.22;5094671;28;20115;-77
2022/04/18 07:02:32;;;;;;;3.67;2.90;;;;;;;9.85;45.36;101853.81;5091456;28;20028;-78
2022/04/18 07:04:58;;;;;;;4.05;2.58;;;;;;;10.13;43.72;101854.88;5083146;28;20515;-77
2022/04/18 07:07:24;;;;;;;4.72;2.38;;;;;;;10.42;42.66;101847.00;5088992;28;20036;-77
2022/04/18 07:09:49;;;;;;;3.35;2.63;;;;;;;10.73;42.49;101846.88;5080526;28;20047;-77
2022/04/18 07:12:20;;;;;;;3.17;2.47;;;;;;;11.05;41.28;101843.16;5091448;28;20499;-77
2022/04/18 07:14:45;;;;;;;4.15;2.50;;;;;;;11.40;40.87;101845.41;5093427;28;20040;-77
2022/04/18 07:17:10;;;;;;;3.73;2.20;;;;;;;11.73;40.49;101844.16;5087449;28;20425;-77
2022/04/18 07:19:35;;;;;;;5.53;2.47;;;;;;;12.00;40.27;101846.84;5086651;28;20291;-77
2022/04/18 07:22:02;;;;;;;2.83;2.40;;;;;;;12.31;40.25;101834.97;5092502;28;20290;-78
2022/04/18 07:24:27;;;;;;;2.47;2.28;;;;;;;12.63;38.53;101834.56;5081984;28;20430;-78
2022/04/18 07:26:53;;;;;;;5.63;2.53;;;;;;;12.92;37.11;101831.66;5090384;28;20055;-78
2022/04/18 07:29:18;;;;;;;4.97;2.47;;;;;;;13.23;37.11;101830.34;5088608;28;20040;-78
2022/04/18 07:31:44;;;;;;;3.30;2.58;;;;;;;13.53;36.01;101829.09;5088906;28;20028;-78
2022/04/18 07:34:09;;;;;;;3.47;2.42;;;;;;;13.86;36.20;101825.75;5075949;28;20040;-78
2022/04/18 07:36:35;;;;;;;3.15;2.20;;;;;;;14.12;34.60;101822.94;5094250;28;20059;-77
2022/04/18 07:39:00;;;;;;;3.42;2.15;;;;;;;14.39;33.97;101817.28;5091675;28;20055;-78
2022/04/18 07:41:28;;;;;;;2.55;2.15;;;;;;;14.78;34.38;101811.63;5087426;28;20037;-78
2022/04/18 07:43:54;;;;;;;4.82;2.17;;;;;;;14.95;32.39;101812.97;5072959;28;20036;-78
2022/04/18 07:46:21;;;;;;;4.65;1.90;;;;;;;15.29;31.97;101818.31;5073933;28;20181;-78
2022/04/18 07:48:49;;;;;;;3.40;2.22;;;;;;;15.59;32.37;101812.25;5073440;28;20040;-78
2022/04/18 07:53:59;;;;;;;2.85;2.08;;;;;;;16.17;31.47;101805.69;5073559;28;20056;-79
2022/04/18 07:56:25;;;;;;;3.40;2.20;;;;;;;16.36;29.66;101811.19;5073257;28;20049;-79
2022/04/18 07:58:50;;;;;;;2.70;2.03;;;;;;;16.40;28.71;101806.41;5074002;28;20093;-78
2022/04/18 08:01:17;;;;;;;2.58;1.95;;;;;;;16.51;29.01;101808.16;5073142;28;20041;-78
2022/04/18 08:03:42;;;;;;;3.35;2.08;;;;;;;16.79;29.08;101796.72;5072996;28;20040;-79
2022/04/18 08:06:08;;;;;;;4.30;2.35;;;;;;;16.92;28.93;101796.53;5086525;28;20032;-79
2022/04/18 08:08:33;;;;;;;6.63;2.40;;;;;;;17.01;29.34;101805.59;5093278;28;20036;-79
2022/04/18 08:10:59;;;;;;;2.50;2.30;;;;;;;17.22;30.08;101805.53;5093230;28;20036;-80
2022/04/18 08:13:24;;;;;;;3.67;2.40;;;;;;;17.50;29.21;101805.69;5093137;28;20036;-79
2022/04/18 08:15:50;;;;;;;3.15;2.55;;;;;;;17.86;29.12;101804.16;5092876;28;20043;-79
2022/04/18 08:18:16;;;;;;;2.85;2.22;;;;;;;18.10;27.61;101808.28;5093205;28;20038;-79
2022/04/18 08:20:41;;;;;;;3.63;2.58;;;;;;;18.23;28.14;101807.97;5092892;28;20397;-79
2022/04/18 08:23:06;;;;;;;4.78;2.20;;;;;;;18.46;27.99;101803.13;5093375;28;20071;-80
2022/04/18 08:25:32;;;;;;;4.85;2.35;;;;;;;18.74;27.16;101804.00;5093225;28;20051;-80
2022/04/18 08:27:57;;;;;;;7.72;2.67;;;;;;;18.89;26.43;101809.78;5078761;28;20033;-79
2022/04/18 08:30:22;;;;;;;3.63;2.33;;;;;;;18.81;26.43;101805.09;5089010;28;20043;-79
2022/04/18 08:32:47;;;;;;;3.80;2.17;;;;;;;18.82;25.75;101806.81;5075093;28;20032;-79
2022/04/18 08:35:13;;;;;;;4.68;2.40;;;;;;;18.79;26.93;101806.25;5084770;28;20483;-80
2022/04/18 08:37:38;;;;;;;2.43;2.20;;;;;;;18.99;26.40;101805.19;5097516;28;20048;-80
2022/04/18 08:40:06;;;;;;;2.20;1.95;;;;;;;19.34;26.26;101808.97;5104059;28;20273;-79
2022/04/18 08:42:36;;;;;;;3.00;2.30;;;;;;;19.39;25.14;101817.44;5101881;28;20036;-79
2022/04/18 08:45:05;;;;;;;2.50;2.30;;;;;;;19.43;24.55;101807.22;5097726;28;20479;-79
2022/04/18 08:52:58;;;;;;;3.33;1.92;;;;;;;20.27;25.45;101805.97;5091213;28;20502;-80
2022/04/18 08:55:24;;;;;;;4.35;2.15;;;;;;;20.30;24.60;101804.78;5076536;28;20036;-80
2022/04/18 08:57:49;;;;;;;4.10;1.92;;;;;;;20.56;24.29;101807.47;5075913;28;20051;-79
2022/04/18 09:00:15;;;;;;;2.70;2.20;;;;;;;20.61;23.72;101805.16;5083659;28;20724;-79
2022/04/18 09:02:40;;;;;;;2.65;1.98;;;;;;;20.88;23.28;101804.16;5091558;28;20286;-79
2022/04/18 09:05:13;;;;;;;2.70;1.95;;;;;;;21.02;24.82;101791.88;5076991;28;20028;-79
2022/04/18 09:07:43;;;;;;;2.50;2.25;;;;;;;21.05;23.95;101794.25;5082348;28;20436;-79
2022/04/18 09:10:08;;;;;;;2.20;2.00;;;;;;;21.23;24.19;101794.16;5077954;28;20036;-79
2022/04/18 09:12:34;;;;;;;4.22;1.98;;;;;;;21.30;22.95;101788.94;5091750;28;20089;-79
2022/04/18 09:14:59;;;;;;;4.07;2.00;;;;;;;21.42;23.03;101784.88;5084994;28;20090;-79
2022/04/18 09:17:36;;;;;;;3.22;2.33;;;;;;;21.46;23.73;101789.97;5090790;28;20500;-78
2022/04/18 09:20:07;;;;;;;3.55;2.45;;;;;;;21.42;23.62;101801.09;5093157;28;20047;-78
2022/04/18 09:22:43;;;;;;;2.78;2.33;;;;;;;21.47;24.54;101788.94;5079420;28;20032;-79
2022/04/18 09:25:13;;;;;;;4.47;2.30;;;;;;;21.45;23.61;101786.44;5085057;28;20029;-79
2022/04/18 09:27:38;;;;;;;3.25;2.30;;;;;;;21.60;23.56;101792.06;5061854;28;20123;-79
2022/04/18 09:30:05;;;;;;;3.63;2.33;;;;;;;21.56;23.16;101791.53;5076286;28;20163;-80
2022/04/18 09:32:31;;;;;;;4.03;2.75;;;;;;;21.68;22.96;101786.63;5079437;28;20731;-80
2022/04/18 09:35:01;;;;;;;3.63;2.20;;;;;;;21.84;23.06;101783.09;5095645;28;20066;-80
2022/04/18 09:37:29;;;;;;;3.95;2.42;;;;;;;21.99;23.22;101788.69;5096489;28;20169;-80
2022/04/18 09:39:55;;;;;;;4.30;2.60;;;;;;;21.96;22.55;101786.31;5095847;28;20047;-80
2022/04/18 09:42:22;;;;;;;6.93;2.50;;;;;;;22.16;22.80;101782.22;5095079;28;20286;-80
2022/04/18 09:44:49;;;;;;;4.15;2.38;;;;;;;22.26;22.12;101775.78;5095983;28;20028;-80
2022/04/18 09:47:16;;;;;;;2.78;2.38;;;;;;;22.45;22.37;101778.16;5076929;28;20032;-80
2022/04/18 09:49:42;;;;;;;2.42;2.22;;;;;;;22.50;21.77;101775.78;5082543;28;20032;-80
2022/04/18 09:52:11;;;;;;;4.20;2.20;;;;;;;22.62;21.36;101773.53;5075444;28;20029;-80
2022/04/18 09:54:57;;;;;;;3.28;2.40;;;;;;;22.83;22.69;101770.25;5080299;28;20032;-80
2022/04/18 09:57:27;;;;;;;3.13;2.20;;;;;;;22.94;21.03;101758.16;5093115;28;20042;-79
2022/04/18 09:59:57;;;;;;;2.70;2.47;;;;;;;22.91;20.84;101767.50;5095358;28;20565;-80
2022/04/18 10:02:24;;;;;;;3.55;2.60;;;;;;;22.88;19.90;101756.16;5094701;28;20470;-81
2022/04/18 10:04:51;;;;;;;2.80;2.33;;;;;;;22.95;20.33;101764.41;5095137;28;20038;-81
2022/04/18 10:07:16;;;;;;;2.85;2.00;;;;;;;23.07;19.91;101766.59;5095621;28;20097;-80
2022/04/18 10:09:43;;;;;;;3.97;2.10;;;;;;;23.14;19.41;101757.75;5094737;28;20040;-81
2022/04/18 10:12:09;;;;;;;2.55;2.10;;;;;;;23.32;18.75;101752.88;5095850;28;20467;-81
2022/04/18 10:14:36;;;;;;;4.18;2.30;;;;;;;23.55;20.06;101752.03;5095195;28;20429;-81
2022/04/18 10:17:01;;;;;;;3.67;2.17;;;;;;;23.48;20.17;101751.06;5095675;28;20116;-81
2022/04/18 10:20:04;;;;;;;3.88;2.47;;;;;;;23.76;21.65;101746.78;5095141;28;20051;-81
2022/04/18 10:22:49;;;;;;;3.45;2.42;;;;;;;24.08;20.84;101750.25;5088349;28;20040;-81
2022/04/18 10:25:35;;;;;;;5.38;2.67;;;;;;;23.97;19.50;101742.56;5074742;28;20123;-81
2022/04/18 10:28:10;;;;;;;3.00;2.22;;;;;;;24.02;18.72;101742.84;5074551;28;20037;-82
2022/04/18 10:30:39;;;;;;;5.47;2.60;;;;;;;23.86;18.85;101735.69;5074527;28;20082;-81
2022/04/18 10:33:06;;;;;;;4.00;2.83;;;;;;;23.93;18.99;101728.53;5074565;28;20041;-81
2022/04/18 10:35:32;;;;;;;3.13;2.40;;;;;;;24.09;19.37;101730.22;5074657;28;20439;-81
2022/04/18 10:38:02;;;;;;;3.83;2.90;;;;;;;24.28;19.49;101717.97;5084334;28;20044;-81
2022/04/18 10:40:39;;;;;;;5.18;3.10;;;;;;;24.45;19.57;101723.19;5094530;28;20063;-81
2022/04/18 10:43:07;;;;;;;4.15;2.42;;;;;;;24.63;18.43;101717.41;5094950;28;20433;-82
2022/04/18 10:45:34;;;;;;;4.13;2.80;;;;;;;24.80;18.32;101720.75;5094836;28;20032;-81
2022/04/18 10:48:10;;;;;;;4.18;2.95;;;;;;;24.60;18.22;101724.09;5094243;28;20036;-82
2022/04/18 10:50:39;;;;;;;3.22;2.88;;;;;;;24.68;17.86;101720.41;5093057;28;20335;-83
2022/04/18 10:53:13;;;;;;;2.65;2.45;;;;;;;24.37;18.55;101718.72;5074242;28;20115;-81
2022/04/18 10:56:00;;;;;;;4.68;2.53;;;;;;;24.09;17.02;101723.97;5056886;28;20082;-81
2022/04/18 10:58:29;;;;;;;2.92;2.40;;;;;;;23.91;18.41;101719.72;5094037;28;20090;-81
2022/04/18 11:00:58;;;;;;;3.75;2.72;;;;;;;23.81;18.11;101722.69;5082110;28;20431;-81
2022/04/18 11:03:49;;;;;;;5.30;2.80;;;;;;;23.95;19.69;101717.50;5091842;28;20047;-81
2022/04/18 11:06:17;;;;;;;3.58;2.67;;;;;;;24.15;18.16;101712.38;5079463;28;20032;-81
2022/04/18 11:08:58;;;;;;;3.73;2.50;;;;;;;24.39;19.05;101709.34;5093468;28;20063;-82
2022/04/18 11:11:23;;;;;;;4.18;2.63;;;;;;;24.65;18.67;101704.50;5091386;28;20036;-81
2022/04/18 11:13:50;;;;;;;3.92;2.50;;;;;;;24.70;18.07;101702.88;5081487;28;20449;-81
2022/04/18 11:16:24;;;;;;;4.47;2.90;;;;;;;24.69;18.23;101703.06;5072795;28;20027;-82
2022/04/18 11:19:09;;;;;;;3.25;2.67;;;;;;;24.73;17.84;101699.81;5093710;28;20382;-81
2022/04/18 11:21:54;;;;;;;4.00;2.70;;;;;;;24.82;18.96;101699.69;5084478;28;20516;-82
2022/04/18 11:24:38;;;;;;;3.22;2.80;;;;;;;24.84;17.99;101700.34;5092214;28;20039;-82
2022/04/18 11:27:06;;;;;;;3.88;2.80;;;;;;;24.65;17.12;101688.22;5074593;28;20127;-83
2022/04/18 11:29:32;;;;;;;4.07;3.00;;;;;;;24.81;16.99;101685.25;5073674;28;20119;-83
2022/04/18 11:31:57;;;;;;;3.53;2.67;;;;;;;24.79;16.75;101687.31;5073831;28;20116;-83
2022/04/18 11:34:28;;;;;;;3.05;2.75;;;;;;;25.03;17.41;101680.69;5073496;28;20476;-83
2022/04/18 11:36:55;;;;;;;4.30;2.78;;;;;;;25.35;18.85;101677.66;5086565;28;20480;-83
2022/04/18 11:39:20;;;;;;;3.42;2.80;;;;;;;25.40;17.45;101678.78;5094278;28;20421;-82
2022/04/18 11:41:46;;;;;;;4.18;2.88;;;;;;;25.27;17.54;101684.09;5094222;28;20098;-84
2022/04/18 11:44:11;;;;;;;2.80;2.60;;;;;;;25.31;17.09;101674.50;5075895;28;20031;-82
2022/04/18 11:46:36;;;;;;;2.97;2.70;;;;;;;25.46;17.86;101682.56;5093602;28;20089;-83
2022/04/18 11:49:02;;;;;;;2.70;2.50;;;;;;;25.65;17.89;101673.75;5093253;28;20474;-82